createdAt,value
2024-02-09T18:45:19.026Z,12.19
2024-02-09T18:47:45.809Z,12.41
2024-02-09T18:50:12.694Z,12.48
2024-02-09T18:52:39.559Z,12.56
2024-02-09T18:55:07.717Z,12.60
2024-02-09T18:57:36.054Z,12.61
2024-02-09T19:00:02.934Z,12.58
2024-02-09T19:02:29.667Z,12.57
2024-02-09T19:04:56.486Z,12.64
2024-02-09T19:07:23.430Z,12.51
2024-02-09T19:09:50.217Z,12.58
2024-02-09T19:12:16.927Z,12.63
2024-02-09T19:14:44.212Z,12.64
2024-02-09T19:17:11.070Z,12.65
2024-02-09T19:19:37.774Z,12.61
2024-02-09T19:22:04.742Z,12.61
2024-02-09T19:24:31.445Z,12.48
2024-02-09T19:26:58.114Z,12.49
2024-02-09T19:29:24.792Z,12.42
2024-02-09T19:31:51.612Z,12.46
2024-02-09T19:34:18.527Z,12.42
2024-02-09T19:36:45.288Z,12.33
2024-02-09T19:39:12.181Z,12.33
2024-02-09T19:41:39.492Z,12.35
2024-02-09T19:44:08.837Z,12.42
2024-02-09T19:46:35.632Z,12.41
2024-02-09T19:49:02.390Z,12.37
2024-02-09T19:51:32.262Z,12.19
2024-02-09T19:53:58.926Z,12.31
2024-02-09T19:56:25.594Z,12.16
2024-02-09T19:58:52.368Z,11.66
2024-02-09T20:01:19.209Z,11.78
2024-02-09T20:03:45.999Z,11.86
2024-02-09T20:06:12.767Z,12.04
2024-02-09T20:08:39.513Z,12.15
2024-02-09T20:11:06.238Z,12.17
2024-02-09T20:13:32.992Z,12.19
2024-02-09T20:15:59.688Z,12.26
2024-02-09T20:18:26.726Z,12.29
2024-02-09T20:20:53.550Z,12.29
2024-02-09T20:23:20.315Z,12.29
2024-02-09T20:25:48.677Z,12.30
2024-02-09T20:28:15.438Z,12.29
2024-02-09T20:30:42.166Z,12.38
2024-02-09T20:33:09.076Z,12.36
2024-02-09T20:35:35.968Z,12.43
2024-02-09T20:38:02.658Z,12.51
2024-02-09T20:40:29.572Z,12.49
2024-02-09T20:42:56.565Z,12.51
2024-02-09T20:45:25.190Z,12.51
2024-02-09T20:47:52.211Z,12.49
2024-02-09T20:50:23.552Z,12.45
2024-02-09T20:52:50.772Z,12.42
2024-02-09T20:55:18.156Z,12.33
2024-02-09T20:57:46.131Z,12.23
2024-02-09T21:00:17.468Z,12.32
2024-02-09T21:02:44.153Z,12.32
2024-02-09T21:05:10.890Z,12.40
2024-02-09T21:07:37.647Z,12.39
2024-02-09T21:10:04.769Z,12.40
2024-02-09T21:12:31.471Z,12.39
2024-02-09T21:14:58.290Z,12.32
2024-02-09T21:17:25.153Z,12.34
2024-02-09T21:19:52.648Z,12.31
2024-02-09T21:22:19.748Z,12.36
2024-02-09T21:24:49.504Z,12.40
2024-02-09T21:27:16.291Z,12.33
2024-02-09T21:29:43.194Z,12.33
2024-02-09T21:32:09.902Z,12.17
2024-02-09T21:34:36.689Z,12.21
2024-02-09T21:37:03.489Z,12.11
2024-02-09T21:39:30.237Z,12.12
2024-02-09T21:41:56.982Z,12.20
2024-02-09T21:44:23.673Z,12.21
2024-02-09T21:46:50.382Z,12.19
2024-02-09T21:49:20.394Z,12.14
2024-02-09T21:51:48.542Z,12.08
2024-02-09T21:54:19.024Z,12.18
2024-02-09T21:56:45.711Z,12.32
2024-02-09T21:59:14.638Z,12.30
2024-02-09T22:01:42.194Z,12.34
2024-02-09T22:04:09.055Z,12.47
2024-02-09T22:06:35.751Z,12.44
2024-02-09T22:09:02.430Z,12.37
2024-02-09T22:11:29.104Z,12.28
2024-02-09T22:13:56.077Z,12.32
2024-02-09T22:16:22.774Z,12.24
2024-02-09T22:18:49.468Z,12.23
2024-02-09T22:21:16.171Z,12.34
2024-02-09T22:23:42.926Z,12.32
2024-02-09T22:26:09.986Z,12.35
2024-02-09T22:28:36.770Z,12.40
2024-02-09T22:31:03.595Z,12.43
2024-02-09T22:33:30.355Z,12.24
2024-02-09T22:35:57.163Z,12.19
2024-02-09T22:38:23.851Z,12.03
2024-02-09T22:40:51.158Z,11.98
2024-02-09T22:43:17.933Z,11.78
2024-02-09T22:45:44.724Z,11.40
2024-02-09T22:48:11.459Z,11.24
2024-02-09T22:50:38.134Z,11.02
2024-02-09T22:53:04.983Z,10.63
2024-02-09T22:55:31.877Z,10.48
2024-02-09T22:57:58.653Z,10.37
2024-02-09T23:00:25.523Z,10.41
2024-02-09T23:02:52.207Z,10.52
2024-02-09T23:05:18.896Z,10.74
2024-02-09T23:07:46.165Z,11.02
2024-02-09T23:10:13.661Z,11.31
2024-02-09T23:12:41.024Z,11.52
2024-02-09T23:15:12.426Z,11.62
2024-02-09T23:17:39.876Z,11.49
2024-02-09T23:20:07.219Z,11.34
2024-02-09T23:22:34.218Z,11.44
2024-02-09T23:25:01.186Z,11.48
2024-02-09T23:27:27.900Z,11.58
2024-02-09T23:29:57.536Z,11.67
2024-02-09T23:32:25.149Z,11.69
2024-02-09T23:34:51.977Z,11.65
2024-02-09T23:37:18.690Z,11.62
2024-02-09T23:39:45.413Z,11.50
2024-02-09T23:42:12.259Z,11.48
2024-02-09T23:44:39.156Z,11.40
2024-02-09T23:47:05.923Z,11.36
2024-02-09T23:49:32.833Z,11.35
2024-02-09T23:51:59.579Z,11.10
2024-02-09T23:54:26.288Z,11.30
2024-02-09T23:56:53.036Z,11.12
2024-02-09T23:59:19.728Z,11.03
